createdAt,value
2018-10-07T00:01:27.051Z,9.10
2018-10-07T00:04:04.435Z,9.10
2018-10-07T00:06:41.607Z,9.20
2018-10-07T00:09:18.678Z,9.20
2018-10-07T00:11:55.915Z,9.10
2018-10-07T00:14:33.041Z,9.00
2018-10-07T00:17:10.159Z,9.00
2018-10-07T00:19:47.205Z,9.00
2018-10-07T00:22:24.423Z,9.00
2018-10-07T00:25:01.557Z,9.00
2018-10-07T00:27:39.189Z,9.00
2018-10-07T00:30:16.325Z,9.00
2018-10-07T00:32:53.558Z,9.00
2018-10-07T00:35:30.730Z,9.00
2018-10-07T00:38:08.101Z,9.00
2018-10-07T00:40:45.188Z,8.90
2018-10-07T00:43:22.225Z,9.00
2018-10-07T00:46:00.075Z,8.90
2018-10-07T00:48:37.471Z,8.90
2018-10-07T00:51:14.758Z,8.90
2018-10-07T00:53:52.395Z,8.80
2018-10-07T00:56:43.299Z,8.80
2018-10-07T00:59:20.904Z,8.70
2018-10-07T01:01:58.044Z,8.60
2018-10-07T01:04:35.117Z,8.50
2018-10-07T01:07:12.279Z,8.50
2018-10-07T01:09:49.360Z,8.50
2018-10-07T01:12:26.574Z,8.50
2018-10-07T01:15:04.111Z,8.50
2018-10-07T01:17:41.148Z,8.50
2018-10-07T01:20:18.420Z,8.40
2018-10-07T01:22:55.662Z,8.30
2018-10-07T01:25:33.420Z,8.30
2018-10-07T01:28:10.600Z,8.30
2018-10-07T01:30:48.168Z,8.30
2018-10-07T01:33:25.387Z,8.30
2018-10-07T01:36:02.513Z,8.20
2018-10-07T01:38:39.772Z,8.10
2018-10-07T01:41:17.192Z,8.10
2018-10-07T01:43:54.219Z,8.00
2018-10-07T01:46:31.520Z,8.00
2018-10-07T01:49:08.629Z,8.00
2018-10-07T01:51:45.646Z,8.00
2018-10-07T01:54:22.450Z,8.00
2018-10-07T01:56:59.472Z,8.10
2018-10-07T01:59:36.664Z,8.10
2018-10-07T02:02:14.235Z,8.10
2018-10-07T02:04:51.352Z,8.10
2018-10-07T02:07:28.583Z,8.00
2018-10-07T02:10:05.617Z,8.00
2018-10-07T02:12:42.667Z,7.90
2018-10-07T02:15:20.039Z,8.00
2018-10-07T02:17:57.057Z,7.90
2018-10-07T02:20:33.996Z,8.00
2018-10-07T02:23:11.137Z,8.00
2018-10-07T02:25:48.346Z,7.90
2018-10-07T02:28:29.528Z,8.00
2018-10-07T02:31:06.860Z,7.90
2018-10-07T02:33:44.014Z,7.80
2018-10-07T02:36:21.186Z,7.80
2018-10-07T02:38:58.241Z,7.80
2018-10-07T02:41:35.557Z,7.80
2018-10-07T02:44:12.600Z,7.70
2018-10-07T02:46:50.333Z,7.70
2018-10-07T02:49:27.532Z,7.80
2018-10-07T02:52:04.732Z,7.80
2018-10-07T02:54:41.916Z,7.90
2018-10-07T02:57:19.102Z,7.90
2018-10-07T02:59:56.198Z,7.90
2018-10-07T03:02:33.072Z,7.80
2018-10-07T03:05:10.235Z,7.80
2018-10-07T03:07:47.870Z,7.80
2018-10-07T03:10:24.946Z,7.80
2018-10-07T03:13:02.351Z,7.80
2018-10-07T03:15:39.518Z,7.80
2018-10-07T03:18:16.612Z,7.80
2018-10-07T03:20:53.796Z,7.70
2018-10-07T03:23:30.497Z,7.70
2018-10-07T03:26:07.749Z,7.60
2018-10-07T03:28:44.743Z,7.60
2018-10-07T03:31:21.714Z,7.50
2018-10-07T03:33:58.866Z,7.40
2018-10-07T03:36:36.378Z,7.40
2018-10-07T03:39:14.017Z,7.50
2018-10-07T03:41:52.705Z,7.50
2018-10-07T03:44:29.820Z,7.50
2018-10-07T03:47:07.104Z,7.60
2018-10-07T03:49:44.122Z,7.60
2018-10-07T03:52:21.106Z,7.50
2018-10-07T03:54:58.105Z,7.50
2018-10-07T03:57:35.361Z,7.50
2018-10-07T04:00:12.289Z,7.50
2018-10-07T04:02:49.596Z,7.50
2018-10-07T04:05:26.506Z,7.40
2018-10-07T04:08:03.628Z,7.40
2018-10-07T04:10:40.619Z,7.40
2018-10-07T04:13:18.008Z,7.30
2018-10-07T04:15:55.150Z,7.30
2018-10-07T04:18:32.255Z,7.20
2018-10-07T04:21:09.206Z,7.20
2018-10-07T04:23:46.244Z,7.10
2018-10-07T04:26:23.360Z,7.10
2018-10-07T04:29:01.115Z,7.00
2018-10-07T04:31:38.303Z,7.00
2018-10-07T04:34:15.299Z,6.90
2018-10-07T04:36:52.232Z,7.00
2018-10-07T04:39:30.182Z,7.00
2018-10-07T04:42:07.478Z,7.10
2018-10-07T04:44:44.690Z,7.10
2018-10-07T04:47:21.707Z,7.00
2018-10-07T04:49:59.263Z,6.90
2018-10-07T04:52:36.571Z,6.90
2018-10-07T04:55:13.648Z,6.90
2018-10-07T04:57:50.624Z,6.90
2018-10-07T05:00:27.947Z,6.90
2018-10-07T05:03:04.886Z,6.90
2018-10-07T05:05:42.208Z,6.90
2018-10-07T05:08:19.284Z,6.90
2018-10-07T05:10:58.358Z,6.90
2018-10-07T05:13:42.928Z,7.00
2018-10-07T05:16:52.570Z,6.90
2018-10-07T05:19:29.914Z,6.90
2018-10-07T05:22:10.926Z,6.90
2018-10-07T05:24:48.419Z,6.90
2018-10-07T05:27:25.944Z,6.90
2018-10-07T05:30:05.859Z,7.00
2018-10-07T05:32:42.878Z,7.00
2018-10-07T05:35:20.084Z,7.10
2018-10-07T05:37:57.251Z,7.20
2018-10-07T05:40:35.036Z,7.20
2018-10-07T05:43:12.143Z,7.30
2018-10-07T05:45:49.184Z,7.30
2018-10-07T05:48:26.259Z,7.20
2018-10-07T05:51:03.539Z,7.20
2018-10-07T05:53:40.878Z,7.20
2018-10-07T05:56:18.432Z,7.30
2018-10-07T05:58:56.916Z,7.30
2018-10-07T06:01:40.857Z,7.40
2018-10-07T06:04:24.784Z,7.50
2018-10-07T06:07:04.019Z,7.60
2018-10-07T06:09:41.272Z,7.60
2018-10-07T06:12:18.868Z,7.60
2018-10-07T06:15:07.052Z,7.60
2018-10-07T06:17:44.096Z,7.60
2018-10-07T06:20:21.261Z,7.70
2018-10-07T06:22:58.964Z,7.70
2018-10-07T06:25:36.245Z,7.90
2018-10-07T06:28:13.548Z,7.90
2018-10-07T06:30:50.930Z,7.90
2018-10-07T06:33:28.896Z,8.00
2018-10-07T06:36:06.011Z,8.10
2018-10-07T06:38:43.486Z,8.20
2018-10-07T06:41:21.197Z,8.20
2018-10-07T06:43:58.512Z,8.40
2018-10-07T06:46:35.815Z,8.50
2018-10-07T06:49:13.231Z,8.60
2018-10-07T06:51:50.918Z,8.70
2018-10-07T06:54:28.216Z,8.90
2018-10-07T06:57:05.664Z,9.10
2018-10-07T06:59:43.445Z,9.20
2018-10-07T07:02:21.208Z,9.50
2018-10-07T07:04:58.352Z,9.70
2018-10-07T07:07:35.862Z,9.90
2018-10-07T07:10:13.182Z,10.10
2018-10-07T07:12:50.345Z,10.40
2018-10-07T07:15:27.834Z,10.60
2018-10-07T07:18:05.104Z,10.80
2018-10-07T07:20:42.605Z,11.10
2018-10-07T07:23:19.814Z,11.50
2018-10-07T07:25:57.800Z,11.90
2018-10-07T07:28:35.144Z,12.40
2018-10-07T07:31:12.616Z,12.90
2018-10-07T07:33:49.814Z,13.40
2018-10-07T07:36:27.293Z,14.00
2018-10-07T07:39:06.238Z,14.40
2018-10-07T07:41:44.216Z,14.80
2018-10-07T07:44:21.436Z,15.10
2018-10-07T07:46:58.668Z,15.20
2018-10-07T07:49:35.954Z,15.30
2018-10-07T07:52:13.301Z,15.30
2018-10-07T07:54:50.724Z,15.30
2018-10-07T07:57:28.518Z,15.20
2018-10-07T08:00:05.878Z,15.20
2018-10-07T08:02:43.066Z,15.20
2018-10-07T08:05:20.766Z,15.40
2018-10-07T08:07:58.038Z,15.60
2018-10-07T08:10:36.142Z,15.80
2018-10-07T08:13:13.311Z,16.10
2018-10-07T08:15:50.760Z,16.60
2018-10-07T08:18:28.916Z,17.00
2018-10-07T08:21:06.704Z,17.10
2018-10-07T08:23:43.882Z,17.20
2018-10-07T08:26:22.046Z,17.30
2018-10-07T08:28:59.338Z,17.30
2018-10-07T08:31:36.707Z,17.40
2018-10-07T08:34:14.132Z,17.40
2018-10-07T08:36:51.383Z,17.40
2018-10-07T08:39:28.503Z,17.60
2018-10-07T08:42:06.066Z,17.90
2018-10-07T08:44:43.291Z,17.90
2018-10-07T08:47:21.438Z,17.80
2018-10-07T08:49:58.693Z,17.70
2018-10-07T08:52:36.147Z,17.60
2018-10-07T08:55:13.508Z,17.70
2018-10-07T08:57:51.324Z,17.80
2018-10-07T09:00:28.724Z,17.60
2018-10-07T09:03:06.490Z,17.50
2018-10-07T09:05:43.941Z,17.30
2018-10-07T09:08:21.486Z,16.80
2018-10-07T09:10:58.648Z,16.50
2018-10-07T09:13:36.138Z,16.20
2018-10-07T09:16:13.196Z,16.10
2018-10-07T09:18:50.868Z,16.10
2018-10-07T09:21:28.229Z,16.00
2018-10-07T09:24:05.509Z,15.70
2018-10-07T09:26:42.715Z,15.50
2018-10-07T09:29:20.324Z,15.20
2018-10-07T09:31:57.556Z,15.00
2018-10-07T09:34:35.054Z,14.90
2018-10-07T09:37:12.415Z,14.90
2018-10-07T09:39:50.052Z,15.00
2018-10-07T09:42:28.048Z,15.00
2018-10-07T09:45:05.576Z,15.00
2018-10-07T09:47:43.598Z,14.90
2018-10-07T09:50:21.295Z,14.90
2018-10-07T09:52:58.600Z,14.80
2018-10-07T09:55:35.841Z,14.80
2018-10-07T09:58:12.877Z,14.80
2018-10-07T10:00:51.435Z,14.60
2018-10-07T10:03:28.630Z,14.40
2018-10-07T10:06:06.422Z,14.30
2018-10-07T10:08:43.521Z,14.10
2018-10-07T10:11:21.002Z,14.10
2018-10-07T10:13:58.479Z,14.20
2018-10-07T10:16:51.162Z,14.10
2018-10-07T10:19:35.197Z,13.90
2018-10-07T10:22:24.661Z,13.70
2018-10-07T10:25:11.269Z,13.60
2018-10-07T10:28:31.509Z,13.50
2018-10-07T10:32:19.561Z,13.40
2018-10-07T10:35:21.452Z,13.30
2018-10-07T10:38:05.538Z,13.20
2018-10-07T10:40:53.421Z,13.20
2018-10-07T10:43:43.219Z,13.30
2018-10-07T10:46:24.432Z,13.30
2018-10-07T10:49:10.847Z,13.20
2018-10-07T10:51:58.670Z,13.20
2018-10-07T10:55:17.791Z,13.20
2018-10-07T10:57:57.697Z,13.30
2018-10-07T11:00:50.254Z,13.30
2018-10-07T11:03:50.877Z,13.30
2018-10-07T11:08:48.894Z,13.20
2018-10-07T11:12:03.632Z,13.20
2018-10-07T11:14:58.240Z,13.20
2018-10-07T11:17:45.566Z,13.30
2018-10-07T11:20:34.590Z,13.30
2018-10-07T11:24:23.440Z,13.40
2018-10-07T11:27:07.754Z,13.60
2018-10-07T11:30:55.243Z,13.50
2018-10-07T11:33:48.840Z,13.50
2018-10-07T11:36:36.932Z,13.40
2018-10-07T11:39:27.144Z,13.40
2018-10-07T11:42:13.298Z,13.60
2018-10-07T11:44:56.720Z,13.80
2018-10-07T11:47:46.733Z,13.90
2018-10-07T11:50:35.562Z,13.80
2018-10-07T11:53:27.778Z,13.60
2018-10-07T11:56:05.451Z,13.50
2018-10-07T11:58:42.580Z,13.40
2018-10-07T12:01:20.182Z,13.20
2018-10-07T12:03:57.355Z,13.20
2018-10-07T12:06:34.616Z,13.20
2018-10-07T12:09:12.280Z,13.10
2018-10-07T12:11:49.997Z,12.90
2018-10-07T12:14:26.542Z,12.90
2018-10-07T12:17:03.312Z,12.80
2018-10-07T12:19:41.914Z,12.70
2018-10-07T12:22:16.372Z,12.60
2018-10-07T12:24:49.058Z,12.60
2018-10-07T12:27:21.164Z,12.50
2018-10-07T12:29:51.775Z,12.40
2018-10-07T12:32:23.027Z,12.40
2018-10-07T12:34:54.216Z,12.40
2018-10-07T12:37:25.839Z,12.40
2018-10-07T12:39:56.410Z,12.40
2018-10-07T12:42:27.149Z,12.40
2018-10-07T12:44:57.658Z,12.40
2018-10-07T12:47:28.854Z,12.40
2018-10-07T12:50:01.075Z,12.40
2018-10-07T12:52:32.486Z,12.40
2018-10-07T12:55:03.987Z,12.40
2018-10-07T12:57:35.777Z,12.40
2018-10-07T13:00:07.914Z,12.30
2018-10-07T13:02:39.162Z,12.20
2018-10-07T13:05:10.516Z,12.10
2018-10-07T13:07:43.288Z,12.10
2018-10-07T13:10:16.020Z,12.10
2018-10-07T13:12:47.336Z,12.00
2018-10-07T13:15:18.014Z,11.90
2018-10-07T13:17:49.329Z,11.90
2018-10-07T13:20:20.639Z,11.90
2018-10-07T13:22:52.106Z,11.90
2018-10-07T13:25:22.814Z,11.90
2018-10-07T13:27:54.487Z,12.00
2018-10-07T13:30:25.054Z,12.00
2018-10-07T13:32:56.689Z,12.00
2018-10-07T13:35:28.680Z,12.00
2018-10-07T13:38:00.643Z,12.10
2018-10-07T13:40:31.782Z,12.10
2018-10-07T13:43:03.810Z,12.10
2018-10-07T13:45:35.222Z,12.10
2018-10-07T13:48:07.237Z,12.10
2018-10-07T13:50:39.769Z,12.10
2018-10-07T13:53:11.094Z,12.10
2018-10-07T13:55:44.957Z,12.00
2018-10-07T13:58:16.277Z,12.00
2018-10-07T14:00:47.699Z,12.00
2018-10-07T14:03:20.123Z,11.90
2018-10-07T14:05:52.233Z,11.90
2018-10-07T14:08:22.748Z,11.90
2018-10-07T14:10:54.007Z,11.90
2018-10-07T14:13:26.319Z,12.00
2018-10-07T14:15:58.444Z,12.00
2018-10-07T14:18:29.580Z,12.00
2018-10-07T14:21:00.811Z,12.00
2018-10-07T14:23:32.700Z,12.00
2018-10-07T14:26:05.521Z,11.90
2018-10-07T14:28:36.698Z,11.90
2018-10-07T14:31:08.303Z,11.80
2018-10-07T14:33:40.859Z,11.80
2018-10-07T14:36:12.350Z,11.80
2018-10-07T14:38:43.158Z,11.80
2018-10-07T14:41:14.569Z,11.80
2018-10-07T14:43:46.848Z,11.70
2018-10-07T14:46:18.275Z,11.70
2018-10-07T14:48:51.369Z,11.70
2018-10-07T14:51:23.498Z,11.70
2018-10-07T14:53:55.093Z,11.70
2018-10-07T14:56:26.437Z,11.70
2018-10-07T14:58:57.763Z,11.70
2018-10-07T15:01:29.774Z,11.60
2018-10-07T15:04:01.699Z,11.50
2018-10-07T15:06:32.863Z,11.50
2018-10-07T15:09:04.801Z,11.50
2018-10-07T15:11:36.581Z,11.40
2018-10-07T15:14:08.669Z,11.40
2018-10-07T15:16:39.861Z,11.30
2018-10-07T15:19:11.474Z,11.30
2018-10-07T15:21:41.969Z,11.30
2018-10-07T15:24:13.533Z,11.30
2018-10-07T15:26:44.796Z,11.30
2018-10-07T15:29:16.727Z,11.20
2018-10-07T15:31:48.591Z,11.20
2018-10-07T15:34:20.018Z,11.20
2018-10-07T15:36:51.171Z,11.20
2018-10-07T15:39:23.075Z,11.20
2018-10-07T15:41:55.065Z,11.20
2018-10-07T15:44:27.541Z,11.20
2018-10-07T15:46:59.259Z,11.10
2018-10-07T15:49:31.527Z,11.10
2018-10-07T15:52:03.089Z,11.10
2018-10-07T15:54:34.333Z,11.10
2018-10-07T15:57:05.791Z,11.00
2018-10-07T15:59:37.678Z,11.00
2018-10-07T16:02:09.052Z,11.00
2018-10-07T16:04:42.044Z,11.00
2018-10-07T16:07:13.458Z,10.90
2018-10-07T16:09:45.112Z,10.90
2018-10-07T16:12:17.655Z,10.80
2018-10-07T16:14:48.863Z,10.80
2018-10-07T16:17:20.980Z,10.70
2018-10-07T16:19:52.885Z,10.70
2018-10-07T16:22:24.563Z,10.60
2018-10-07T16:24:56.057Z,10.50
2018-10-07T16:27:28.278Z,10.50
2018-10-07T16:30:00.481Z,10.40
2018-10-07T16:32:31.678Z,10.40
2018-10-07T16:35:03.032Z,10.40
2018-10-07T16:37:35.430Z,10.30
2018-10-07T16:40:07.294Z,10.30
2018-10-07T16:42:38.503Z,10.20
2018-10-07T16:45:09.960Z,10.20
2018-10-07T16:47:42.109Z,10.10
2018-10-07T16:50:15.861Z,10.10
2018-10-07T16:52:47.898Z,10.00
2018-10-07T16:55:19.756Z,10.00
2018-10-07T16:57:51.575Z,9.90
2018-10-07T17:00:22.672Z,9.90
2018-10-07T17:02:54.054Z,9.80
2018-10-07T17:05:26.151Z,9.80
2018-10-07T17:07:57.980Z,9.80
2018-10-07T17:10:29.121Z,9.70
2018-10-07T17:13:00.977Z,9.70
2018-10-07T17:15:32.839Z,9.70
2018-10-07T17:18:03.341Z,9.70
2018-10-07T17:20:33.315Z,9.70
2018-10-07T17:23:05.359Z,9.60
2018-10-07T17:25:36.895Z,9.60
2018-10-07T17:28:08.939Z,9.60
2018-10-07T17:30:40.295Z,9.60
2018-10-07T17:33:11.738Z,9.60
2018-10-07T17:35:44.020Z,9.60
2018-10-07T17:38:15.479Z,9.50
2018-10-07T17:40:46.797Z,9.50
2018-10-07T17:43:18.061Z,9.50
2018-10-07T17:45:50.579Z,9.50
2018-10-07T17:48:21.924Z,9.50
2018-10-07T17:50:53.455Z,9.40
2018-10-07T17:53:25.521Z,9.40
2018-10-07T17:55:57.015Z,9.40
2018-10-07T17:58:28.418Z,9.40
2018-10-07T18:01:00.074Z,9.40
2018-10-07T18:03:32.337Z,9.30
2018-10-07T18:06:04.729Z,9.30
2018-10-07T18:08:36.791Z,9.40
2018-10-07T18:11:08.099Z,9.30
2018-10-07T18:13:40.221Z,9.30
2018-10-07T18:16:11.883Z,9.30
2018-10-07T18:18:44.580Z,9.30
2018-10-07T18:21:16.569Z,9.30
2018-10-07T18:23:48.871Z,9.30
2018-10-07T18:26:20.093Z,9.30
2018-10-07T18:28:51.182Z,9.30
2018-10-07T18:31:23.128Z,9.30
2018-10-07T18:33:55.323Z,9.30
2018-10-07T18:36:26.511Z,9.20
2018-10-07T18:38:57.010Z,9.20
2018-10-07T18:41:33.003Z,9.20
2018-10-07T18:44:04.916Z,9.20
2018-10-07T18:46:37.441Z,9.20
2018-10-07T18:49:08.709Z,9.20
2018-10-07T18:51:40.867Z,9.20
2018-10-07T18:54:11.518Z,9.20
2018-10-07T18:56:42.729Z,9.20
2018-10-07T18:59:14.131Z,9.20
2018-10-07T19:01:46.131Z,9.20
2018-10-07T19:04:17.455Z,9.20
2018-10-07T19:06:48.936Z,9.10
2018-10-07T19:09:20.645Z,9.10
2018-10-07T19:11:54.310Z,9.10
2018-10-07T19:14:25.846Z,9.10
2018-10-07T19:16:57.311Z,9.10
2018-10-07T19:19:28.503Z,9.10
2018-10-07T19:22:00.688Z,9.10
2018-10-07T19:24:32.121Z,9.10
2018-10-07T19:27:03.326Z,9.10
2018-10-07T19:29:35.450Z,9.10
2018-10-07T19:32:08.000Z,9.10
2018-10-07T19:34:39.256Z,9.10
2018-10-07T19:37:10.854Z,9.10
2018-10-07T19:39:42.408Z,9.10
2018-10-07T19:42:13.654Z,9.10
2018-10-07T19:44:44.934Z,9.10
2018-10-07T19:47:17.274Z,9.00
2018-10-07T19:49:49.204Z,9.00
2018-10-07T19:52:21.267Z,9.00
2018-10-07T19:54:52.730Z,9.00
2018-10-07T19:57:25.689Z,9.00
2018-10-07T19:59:57.830Z,9.00
2018-10-07T20:02:30.012Z,9.00
2018-10-07T20:05:01.908Z,9.00
2018-10-07T20:07:33.845Z,9.00
2018-10-07T20:10:05.866Z,9.00
2018-10-07T20:12:37.232Z,9.00
2018-10-07T20:15:09.051Z,9.00
2018-10-07T20:17:40.785Z,9.00
2018-10-07T20:20:12.453Z,8.90
2018-10-07T20:22:44.432Z,8.90
2018-10-07T20:25:16.273Z,8.90
2018-10-07T20:27:48.129Z,8.90
2018-10-07T20:30:19.883Z,8.90
2018-10-07T20:32:51.693Z,8.90
2018-10-07T20:35:23.609Z,8.90
2018-10-07T20:37:55.430Z,8.90
2018-10-07T20:40:27.223Z,8.90
2018-10-07T20:42:57.765Z,8.90
2018-10-07T20:45:30.131Z,8.90
2018-10-07T20:48:02.040Z,8.90
2018-10-07T20:50:33.702Z,8.90
2018-10-07T20:53:05.716Z,8.90
2018-10-07T20:55:37.090Z,8.80
2018-10-07T20:58:08.995Z,8.80
2018-10-07T21:00:40.740Z,8.80
2018-10-07T21:03:12.719Z,8.80
2018-10-07T21:05:45.007Z,8.80
2018-10-07T21:08:17.155Z,8.80
2018-10-07T21:10:48.699Z,8.80
2018-10-07T21:13:20.649Z,8.80
2018-10-07T21:15:51.731Z,8.80
2018-10-07T21:18:23.769Z,8.80
2018-10-07T21:20:55.549Z,8.80
2018-10-07T21:23:27.333Z,8.70
2018-10-07T21:25:58.617Z,8.70
2018-10-07T21:28:30.137Z,8.70
2018-10-07T21:31:01.838Z,8.70
2018-10-07T21:33:33.623Z,8.70
2018-10-07T21:36:05.517Z,8.60
2018-10-07T21:38:37.024Z,8.60
2018-10-07T21:41:07.928Z,8.60
2018-10-07T21:43:39.849Z,8.60
2018-10-07T21:46:11.556Z,8.60
2018-10-07T21:48:43.552Z,8.60
2018-10-07T21:51:15.517Z,8.50
2018-10-07T21:53:47.234Z,8.50
2018-10-07T21:56:18.991Z,8.50
2018-10-07T21:58:50.935Z,8.50
2018-10-07T22:01:22.413Z,8.50
2018-10-07T22:03:54.508Z,8.50
2018-10-07T22:06:25.752Z,8.50
2018-10-07T22:08:57.503Z,8.50
2018-10-07T22:11:29.398Z,8.50
2018-10-07T22:14:01.038Z,8.50
2018-10-07T22:16:32.843Z,8.50
2018-10-07T22:19:04.285Z,8.50
2018-10-07T22:21:36.301Z,8.50
2018-10-07T22:24:08.331Z,8.50
2018-10-07T22:26:40.095Z,8.40
2018-10-07T22:29:12.084Z,8.40
2018-10-07T22:31:44.047Z,8.40
2018-10-07T22:34:15.685Z,8.40
2018-10-07T22:36:46.659Z,8.40
2018-10-07T22:39:17.605Z,8.30
2018-10-07T22:41:48.788Z,8.30
2018-10-07T22:44:21.125Z,8.30
2018-10-07T22:46:53.553Z,8.30
2018-10-07T22:49:25.258Z,8.30
2018-10-07T22:51:57.139Z,8.20
2018-10-07T22:54:28.745Z,8.20
2018-10-07T22:56:59.958Z,8.10
2018-10-07T22:59:31.787Z,8.10
2018-10-07T23:02:03.594Z,8.00
2018-10-07T23:04:35.357Z,7.90
2018-10-07T23:07:07.189Z,7.80
2018-10-07T23:09:38.792Z,7.70
2018-10-07T23:12:11.249Z,7.60
2018-10-07T23:14:43.005Z,7.50
2018-10-07T23:17:14.678Z,7.40
2018-10-07T23:19:46.670Z,7.30
2018-10-07T23:22:17.744Z,7.20
2018-10-07T23:24:49.544Z,7.10
2018-10-07T23:27:21.897Z,7.10
2018-10-07T23:29:53.374Z,7.00
2018-10-07T23:32:25.333Z,6.90
2018-10-07T23:34:57.234Z,6.80
2018-10-07T23:37:29.097Z,6.70
2018-10-07T23:40:00.728Z,6.60
2018-10-07T23:42:32.524Z,6.60
2018-10-07T23:45:04.344Z,6.50
2018-10-07T23:47:35.809Z,6.50
2018-10-07T23:50:07.301Z,6.50
2018-10-07T23:52:38.473Z,6.50
2018-10-07T23:55:10.460Z,6.40
2018-10-07T23:57:42.164Z,6.50
